Time,TemperatureF,DewpointF,PressureIn,WindDirection,WindDirectionDegrees,WindSpeedMPH,WindSpeedGustMPH,Humidity,HourlyPrecipIn,Conditions,Clouds,dailyrainin,SoftwareType,DateUTC
2013-06-22 00:01:00,56.6,52.5,30.23,ENE,74,0.0,0.0,86,0.00,,,0.00,Wunderground v.1.13,2013-06-22 04:01:00,
2013-06-22 00:02:00,56.6,52.8,30.23,ENE,74,0.0,0.0,87,0.00,,,0.00,Wunderground v.1.13,2013-06-22 04:02:00,
2013-06-22 00:03:00,56.6,52.8,30.23,ENE,74,0.0,0.0,87,0.00,,,0.00,Wunderground v.1.13,2013-06-22 04:03:00,
2013-06-22 00:08:00,56.5,52.4,30.23,ENE,74,0.0,0.0,86,0.00,,,0.00,Wunderground v.1.13,2013-06-22 04:08:00,
2013-06-22 00:09:00,56.5,52.4,30.23,ENE,74,0.0,0.0,86,0.00,,,0.00,Wunderground v.1.13,2013-06-22 04:09:00,
2013-06-22 00:15:00,56.4,52.3,30.23,ENE,74,0.0,0.0,86,0.00,,,0.00,Wunderground v.1.13,2013-06-22 04:15:00,
2013-06-22 00:21:00,56.3,52.5,30.23,ENE,74,0.0,0.0,87,0.00,,,0.00,Wunderground v.1.13,2013-06-22 04:21:00,
2013-06-22 00:24:00,56.2,52.4,30.23,ENE,74,0.0,0.0,87,0.00,,,0.00,Wunderground v.1.13,2013-06-22 04:24:00,
2013-06-22 00:30:00,56.1,52.3,30.23,ENE,74,0.0,0.0,87,0.00,,,0.00,Wunderground v.1.13,2013-06-22 04:30:00,
2013-06-22 00:35:00,56.0,52.2,30.23,ENE,74,0.0,0.0,87,0.00,,,0.00,Wunderground v.1.13,2013-06-22 04:35:00,
2013-06-22 00:41:00,55.9,52.1,30.23,ENE,74,0.0,0.0,87,0.00,,,0.00,Wunderground v.1.13,2013-06-22 04:41:00,
2013-06-22 00:47:00,55.7,51.9,30.23,ENE,74,0.0,0.0,87,0.00,,,0.00,Wunderground v.1.13,2013-06-22 04:47:00,
2013-06-22 00:52:00,55.7,52.2,30.23,ENE,74,0.0,0.0,88,0.00,,,0.00,Wunderground v.1.13,2013-06-22 04:52:00,
2013-06-22 00:58:00,55.6,52.1,30.24,ENE,74,0.0,0.0,88,0.00,,,0.00,Wunderground v.1.13,2013-06-22 04:58:00,
2013-06-22 01:04:00,55.6,52.1,30.24,ENE,74,0.0,0.0,88,0.00,,,0.00,Wunderground v.1.13,2013-06-22 05:04:00,
2013-06-22 01:09:00,55.6,52.1,30.24,ENE,74,0.0,0.0,88,0.00,,,0.00,Wunderground v.1.13,2013-06-22 05:09:00,
2013-06-22 01:15:00,55.6,52.1,30.24,ENE,74,0.0,0.0,88,0.00,,,0.00,Wunderground v.1.13,2013-06-22 05:15:00,
2013-06-22 01:21:00,55.5,52.0,30.24,ENE,74,0.0,0.0,88,0.00,,,0.00,Wunderground v.1.13,2013-06-22 05:21:00,
2013-06-22 01:27:00,55.4,51.9,30.23,ENE,74,0.0,0.0,88,0.00,,,0.00,Wunderground v.1.13,2013-06-22 05:27:00,
2013-06-22 01:33:00,55.4,51.9,30.24,ENE,74,0.0,0.0,88,0.00,,,0.00,Wunderground v.1.13,2013-06-22 05:33:00,
2013-06-22 01:39:00,55.4,52.2,30.24,ENE,74,0.0,0.0,89,0.00,,,0.00,Wunderground v.1.13,2013-06-22 05:39:00,
2013-06-22 01:45:00,55.3,52.1,30.24,ENE,74,0.0,0.0,89,0.00,,,0.00,Wunderground v.1.13,2013-06-22 05:45:00,
2013-06-22 01:50:00,55.3,52.1,30.24,ENE,74,0.0,0.0,89,0.00,,,0.00,Wunderground v.1.13,2013-06-22 05:50:00,
2013-06-22 01:56:00,55.2,52.0,30.23,ENE,74,0.0,0.0,89,0.00,,,0.00,Wunderground v.1.13,2013-06-22 05:56:00,
2013-06-22 02:01:00,55.3,52.1,30.23,ENE,74,0.0,0.0,89,0.00,,,0.00,Wunderground v.1.13,2013-06-22 06:01:00,
2013-06-22 02:06:00,55.3,52.1,30.23,ENE,74,0.0,0.0,89,0.00,,,0.00,Wunderground v.1.13,2013-06-22 06:06:00,
2013-06-22 02:11:00,55.3,52.1,30.23,ENE,74,0.0,0.0,89,0.00,,,0.00,Wunderground v.1.13,2013-06-22 06:11:00,
2013-06-22 02:16:00,55.3,52.1,30.23,ENE,74,0.0,0.0,89,0.00,,,0.00,Wunderground v.1.13,2013-06-22 06:16:00,
2013-06-22 02:21:00,55.3,52.1,30.23,ENE,74,0.0,0.0,89,0.00,,,0.00,Wunderground v.1.13,2013-06-22 06:21:00,
2013-06-22 02:26:00,55.2,52.0,30.23,ENE,74,0.0,0.0,89,0.00,,,0.00,Wunderground v.1.13,2013-06-22 06:26:00,
2013-06-22 02:32:00,55.2,52.0,30.23,ENE,74,0.0,0.0,89,0.00,,,0.00,Wunderground v.1.13,2013-06-22 06:32:00,
2013-06-22 02:37:00,55.2,52.0,30.23,ENE,74,0.0,0.0,89,0.00,,,0.00,Wunderground v.1.13,2013-06-22 06:37:00,
2013-06-22 02:42:00,55.2,52.0,30.23,ENE,74,0.0,0.0,89,0.00,,,0.00,Wunderground v.1.13,2013-06-22 06:42:00,
2013-06-22 02:47:00,55.2,52.0,30.23,ENE,74,0.0,0.0,89,0.00,,,0.00,Wunderground v.1.13,2013-06-22 06:47:00,
2013-06-22 02:52:00,55.2,52.0,30.23,ENE,74,0.0,0.0,89,0.00,,,0.00,Wunderground v.1.13,2013-06-22 06:52:00,
2013-06-22 02:57:00,55.2,52.0,30.22,ENE,74,0.0,0.0,89,0.00,,,0.00,Wunderground v.1.13,2013-06-22 06:57:00,
2013-06-22 03:02:00,55.1,51.9,30.22,ENE,74,0.0,0.0,89,0.00,,,0.00,Wunderground v.1.13,2013-06-22 07:02:00,
2013-06-22 03:08:00,55.1,51.9,30.22,ENE,74,0.0,0.0,89,0.00,,,0.00,Wunderground v.1.13,2013-06-22 07:08:00,
2013-06-22 03:13:00,55.0,52.1,30.22,ENE,74,0.0,0.0,90,0.00,,,0.00,Wunderground v.1.13,2013-06-22 07:13:00,
2013-06-22 03:18:00,54.9,52.0,30.22,ENE,74,0.0,0.0,90,0.00,,,0.00,Wunderground v.1.13,2013-06-22 07:18:00,
2013-06-22 03:23:00,54.8,51.9,30.22,ENE,74,0.0,0.0,90,0.00,,,0.00,Wunderground v.1.13,2013-06-22 07:23:00,
2013-06-22 03:28:00,54.8,51.9,30.22,ENE,74,0.0,0.0,90,0.00,,,0.00,Wunderground v.1.13,2013-06-22 07:28:00,
2013-06-22 03:33:00,54.7,51.8,30.22,ENE,74,0.0,0.0,90,0.00,,,0.00,Wunderground v.1.13,2013-06-22 07:33:00,
2013-06-22 03:38:00,54.7,51.8,30.21,ENE,74,0.0,0.0,90,0.00,,,0.00,Wunderground v.1.13,2013-06-22 07:38:00,
2013-06-22 03:43:00,54.6,51.7,30.22,ENE,74,0.0,0.0,90,0.00,,,0.00,Wunderground v.1.13,2013-06-22 07:43:00,
2013-06-22 03:48:00,54.5,51.6,30.21,ENE,74,0.0,0.0,90,0.00,,,0.00,Wunderground v.1.13,2013-06-22 07:48:00,
2013-06-22 03:53:00,54.4,51.5,30.22,ENE,74,0.0,0.0,90,0.00,,,0.00,Wunderground v.1.13,2013-06-22 07:53:00,
2013-06-22 03:58:00,54.3,51.4,30.22,ENE,74,0.0,0.0,90,0.00,,,0.00,Wunderground v.1.13,2013-06-22 07:58:00,
2013-06-22 04:03:00,54.2,51.3,30.21,ENE,74,0.0,0.0,90,0.00,,,0.00,Wunderground v.1.13,2013-06-22 08:03:00,
2013-06-22 04:08:00,54.2,51.3,30.21,ENE,74,0.0,0.0,90,0.00,,,0.00,Wunderground v.1.13,2013-06-22 08:08:00,
2013-06-22 04:13:00,54.2,51.6,30.21,ENE,74,0.0,0.0,91,0.00,,,0.00,Wunderground v.1.13,2013-06-22 08:13:00,
2013-06-22 04:18:00,54.2,51.6,30.21,ENE,74,0.0,0.0,91,0.00,,,0.00,Wunderground v.1.13,2013-06-22 08:18:00,
2013-06-22 04:24:00,54.2,51.6,30.21,ENE,74,0.0,0.0,91,0.00,,,0.00,Wunderground v.1.13,2013-06-22 08:24:00,
2013-06-22 04:29:00,54.2,51.6,30.21,ENE,74,0.0,0.0,91,0.00,,,0.00,Wunderground v.1.13,2013-06-22 08:29:00,
2013-06-22 04:34:00,54.3,51.7,30.21,ENE,74,0.0,0.0,91,0.00,,,0.00,Wunderground v.1.13,2013-06-22 08:34:00,
2013-06-22 04:39:00,54.3,51.7,30.21,ENE,74,0.0,0.0,91,0.00,,,0.00,Wunderground v.1.13,2013-06-22 08:39:00,
2013-06-22 04:44:00,54.3,51.7,30.21,ENE,74,0.0,0.0,91,0.00,,,0.00,Wunderground v.1.13,2013-06-22 08:44:00,
2013-06-22 04:49:00,54.3,51.7,30.21,ENE,74,0.0,0.0,91,0.00,,,0.00,Wunderground v.1.13,2013-06-22 08:49:00,
2013-06-22 04:54:00,54.2,51.6,30.21,ENE,74,0.0,0.0,91,0.00,,,0.00,Wunderground v.1.13,2013-06-22 08:54:00,
2013-06-22 04:59:00,54.2,51.6,30.21,ENE,74,0.0,0.0,91,0.00,,,0.00,Wunderground v.1.13,2013-06-22 08:59:00,
2013-06-22 05:05:00,54.2,51.6,30.21,ENE,74,0.0,0.0,91,0.00,,,0.00,Wunderground v.1.13,2013-06-22 09:05:00,
2013-06-22 05:10:00,54.1,51.5,30.21,ENE,74,0.0,0.0,91,0.00,,,0.00,Wunderground v.1.13,2013-06-22 09:10:00,
2013-06-22 05:15:00,54.1,51.5,30.22,ENE,74,0.0,0.0,91,0.00,,,0.00,Wunderground v.1.13,2013-06-22 09:15:00,
2013-06-22 05:20:00,53.9,51.3,30.22,ENE,74,0.0,0.0,91,0.00,,,0.00,Wunderground v.1.13,2013-06-22 09:20:00,
2013-06-22 05:25:00,53.9,51.3,30.22,ENE,74,0.0,0.0,91,0.00,,,0.00,Wunderground v.1.13,2013-06-22 09:25:00,
2013-06-22 05:30:00,53.8,51.2,30.23,ENE,74,0.0,0.0,91,0.00,,,0.00,Wunderground v.1.13,2013-06-22 09:30:00,
2013-06-22 05:35:00,53.8,51.2,30.23,ENE,74,0.0,0.0,91,0.00,,,0.00,Wunderground v.1.13,2013-06-22 09:35:00,
2013-06-22 05:40:00,53.7,51.1,30.23,ENE,74,0.0,0.0,91,0.00,,,0.00,Wunderground v.1.13,2013-06-22 09:40:00,
2013-06-22 05:45:00,53.7,51.1,30.22,ENE,74,0.0,0.0,91,0.00,,,0.00,Wunderground v.1.13,2013-06-22 09:45:00,
2013-06-22 05:51:00,53.8,51.2,30.22,ENE,74,0.0,0.0,91,0.00,,,0.00,Wunderground v.1.13,2013-06-22 09:51:00,
2013-06-22 05:56:00,53.9,51.3,30.22,ENE,74,0.0,0.0,91,0.00,,,0.00,Wunderground v.1.13,2013-06-22 09:56:00,
2013-06-22 06:01:00,54.0,51.4,30.22,ENE,74,0.0,0.0,91,0.00,,,0.00,Wunderground v.1.13,2013-06-22 10:01:00,
2013-06-22 06:06:00,54.1,51.8,30.22,ENE,74,0.0,0.0,92,0.00,,,0.00,Wunderground v.1.13,2013-06-22 10:06:00,
2013-06-22 06:11:00,54.3,52.0,30.21,ENE,74,0.0,0.0,92,0.00,,,0.00,Wunderground v.1.13,2013-06-22 10:11:00,
2013-06-22 06:16:00,54.4,52.1,30.21,ENE,74,0.0,0.0,92,0.00,,,0.00,Wunderground v.1.13,2013-06-22 10:16:00,
2013-06-22 06:21:00,54.6,52.3,30.21,ENE,74,0.0,0.0,92,0.00,,,0.00,Wunderground v.1.13,2013-06-22 10:21:00,
2013-06-22 06:27:00,54.8,52.5,30.21,ENE,74,0.0,0.0,92,0.00,,,0.00,Wunderground v.1.13,2013-06-22 10:27:00,
2013-06-22 06:32:00,55.0,52.7,30.21,ENE,74,0.0,0.0,92,0.00,,,0.00,Wunderground v.1.13,2013-06-22 10:32:00,
2013-06-22 06:37:00,55.2,52.9,30.21,ENE,74,0.0,0.0,92,0.00,,,0.00,Wunderground v.1.13,2013-06-22 10:37:00,
2013-06-22 06:42:00,55.4,53.1,30.21,ENE,74,0.0,0.0,92,0.00,,,0.00,Wunderground v.1.13,2013-06-22 10:42:00,
2013-06-22 06:47:00,55.7,53.4,30.20,ENE,74,0.0,0.0,92,0.00,,,0.00,Wunderground v.1.13,2013-06-22 10:47:00,
2013-06-22 06:52:00,56.0,53.7,30.20,ENE,74,0.0,0.0,92,0.00,,,0.00,Wunderground v.1.13,2013-06-22 10:52:00,
2013-06-22 06:57:00,56.4,54.1,30.20,ENE,74,0.0,0.0,92,0.00,,,0.00,Wunderground v.1.13,2013-06-22 10:57:00,
2013-06-22 07:02:00,57.1,54.8,30.19,ENE,74,0.0,0.0,92,0.00,,,0.00,Wunderground v.1.13,2013-06-22 11:02:00,
2013-06-22 07:07:00,57.7,55.4,30.19,ENE,74,0.0,0.0,92,0.00,,,0.00,Wunderground v.1.13,2013-06-22 11:07:00,
2013-06-22 07:12:00,58.2,55.9,30.19,ENE,75,0.0,0.0,92,0.00,,,0.00,Wunderground v.1.13,2013-06-22 11:12:00,
2013-06-22 07:17:00,58.6,56.0,30.19,ENE,75,0.0,1.0,91,0.00,,,0.00,Wunderground v.1.13,2013-06-22 11:17:00,
2013-06-22 07:23:00,59.0,56.1,30.19,ENE,75,0.0,0.0,90,0.00,,,0.00,Wunderground v.1.13,2013-06-22 11:23:00,
2013-06-22 07:28:00,59.3,56.4,30.20,ENE,75,0.0,0.0,90,0.00,,,0.00,Wunderground v.1.13,2013-06-22 11:28:00,
2013-06-22 07:33:00,59.6,56.4,30.20,ENE,75,0.0,0.0,89,0.00,,,0.00,Wunderground v.1.13,2013-06-22 11:33:00,
2013-06-22 07:38:00,59.7,56.1,30.20,ENE,75,0.0,0.0,88,0.00,,,0.00,Wunderground v.1.13,2013-06-22 11:38:00,
2013-06-22 07:43:00,59.8,56.2,30.20,ENE,75,0.0,0.0,88,0.00,,,0.00,Wunderground v.1.13,2013-06-22 11:43:00,
2013-06-22 07:48:00,59.7,55.8,30.20,ENE,75,0.0,3.0,87,0.00,,,0.00,Wunderground v.1.13,2013-06-22 11:48:00,
2013-06-22 07:53:00,59.5,55.3,30.20,ENE,75,0.0,0.0,86,0.00,,,0.00,Wunderground v.1.13,2013-06-22 11:53:00,
2013-06-22 07:58:00,59.6,55.7,30.20,ENE,75,0.0,0.0,87,0.00,,,0.00,Wunderground v.1.13,2013-06-22 11:58:00,
2013-06-22 08:03:00,59.7,55.8,30.20,ENE,75,0.0,0.0,87,0.00,,,0.00,Wunderground v.1.13,2013-06-22 12:03:00,
2013-06-22 08:08:00,59.9,56.3,30.20,ENE,75,0.0,0.0,88,0.00,,,0.00,Wunderground v.1.13,2013-06-22 12:08:00,
2013-06-22 08:13:00,60.0,56.4,30.20,ENE,75,0.0,0.0,88,0.00,,,0.00,Wunderground v.1.13,2013-06-22 12:13:00,
2013-06-22 08:18:00,60.3,56.7,30.20,ENE,75,0.0,0.0,88,0.00,,,0.00,Wunderground v.1.13,2013-06-22 12:18:00,
2013-06-22 08:23:00,60.7,57.1,30.20,ENE,75,0.0,1.0,88,0.00,,,0.00,Wunderground v.1.13,2013-06-22 12:23:00,
2013-06-22 08:28:00,61.2,57.3,30.19,ENE,68,0.0,1.0,87,0.00,,,0.00,Wunderground v.1.13,2013-06-22 12:28:00,
2013-06-22 08:33:00,61.6,57.0,30.19,East,79,0.0,3.0,85,0.00,,,0.00,Wunderground v.1.13,2013-06-22 12:33:00,
2013-06-22 08:38:00,62.2,57.6,30.19,East,79,0.0,0.0,85,0.00,,,0.00,Wunderground v.1.13,2013-06-22 12:38:00,
2013-06-22 08:43:00,62.8,57.6,30.19,WSW,256,0.0,4.0,83,0.00,,,0.00,Wunderground v.1.13,2013-06-22 12:43:00,
2013-06-22 08:48:00,63.4,57.5,30.19,WSW,253,0.0,5.0,81,0.00,,,0.00,Wunderground v.1.13,2013-06-22 12:48:00,
2013-06-22 08:53:00,64.0,57.7,30.19,WSW,254,1.0,3.0,80,0.00,,,0.00,Wunderground v.1.13,2013-06-22 12:53:00,
2013-06-22 08:58:00,64.4,58.8,30.19,NNW,338,2.0,3.0,82,0.00,,,0.00,Wunderground v.1.13,2013-06-22 12:58:00,
2013-06-22 09:04:00,64.7,58.0,30.20,NW,321,0.0,1.0,79,0.00,,,0.00,Wunderground v.1.13,2013-06-22 13:04:00,
2013-06-22 09:10:00,65.3,59.3,30.20,NW,321,0.0,0.0,81,0.00,,,0.00,Wunderground v.1.13,2013-06-22 13:10:00,
2013-06-22 09:15:00,66.0,59.3,30.20,NW,321,0.0,0.0,79,0.00,,,0.00,Wunderground v.1.13,2013-06-22 13:15:00,
2013-06-22 09:20:00,66.6,59.5,30.19,NW,321,1.0,1.0,78,0.00,,,0.00,Wunderground v.1.13,2013-06-22 13:20:00,
2013-06-22 09:25:00,67.0,58.8,30.19,NW,323,0.0,1.0,75,0.00,,,0.00,Wunderground v.1.13,2013-06-22 13:25:00,
2013-06-22 09:30:00,67.4,59.6,30.19,NW,322,1.0,1.0,76,0.00,,,0.00,Wunderground v.1.13,2013-06-22 13:30:00,
2013-06-22 09:35:00,67.6,60.1,30.19,NW,322,0.0,0.0,77,0.00,,,0.00,Wunderground v.1.13,2013-06-22 13:35:00,
2013-06-22 09:40:00,67.6,58.6,30.19,NW,323,0.0,0.0,73,0.00,,,0.00,Wunderground v.1.13,2013-06-22 13:40:00,
2013-06-22 09:45:00,68.0,60.5,30.20,NW,323,0.0,0.0,77,0.00,,,0.00,Wunderground v.1.13,2013-06-22 13:45:00,
2013-06-22 09:50:00,68.2,58.8,30.20,NW,322,0.0,2.0,72,0.00,,,0.00,Wunderground v.1.13,2013-06-22 13:50:00,
2013-06-22 09:55:00,68.2,59.2,30.20,SSW,213,2.0,3.0,73,0.00,,,0.00,Wunderground v.1.13,2013-06-22 13:55:00,
2013-06-22 10:00:00,68.5,59.5,30.20,SW,219,0.0,2.0,73,0.00,,,0.00,Wunderground v.1.13,2013-06-22 14:00:00,
2013-06-22 10:06:00,68.7,60.1,30.20,SW,219,0.0,1.0,74,0.00,,,0.00,Wunderground v.1.13,2013-06-22 14:06:00,
2013-06-22 10:11:00,69.1,60.5,30.19,ESE,110,0.0,2.0,74,0.00,,,0.00,Wunderground v.1.13,2013-06-22 14:11:00,
2013-06-22 10:16:00,69.6,61.3,30.19,NNW,341,0.0,1.0,75,0.00,,,0.00,Wunderground v.1.13,2013-06-22 14:16:00,
2013-06-22 10:21:00,70.2,60.7,30.19,WNW,300,1.0,4.0,72,0.00,,,0.00,Wunderground v.1.13,2013-06-22 14:21:00,
2013-06-22 10:27:00,70.9,61.0,30.19,WNW,283,2.0,4.0,71,0.00,,,0.00,Wunderground v.1.13,2013-06-22 14:27:00,
2013-06-22 10:32:00,71.4,61.9,30.19,West,262,0.0,3.0,72,0.00,,,0.00,Wunderground v.1.13,2013-06-22 14:32:00,
2013-06-22 10:37:00,72.2,61.9,30.19,SSW,199,1.0,2.0,70,0.00,,,0.00,Wunderground v.1.13,2013-06-22 14:37:00,
2013-06-22 10:42:00,72.8,61.2,30.19,SSW,195,0.0,2.0,67,0.00,,,0.00,Wunderground v.1.13,2013-06-22 14:42:00,
2013-06-22 10:47:00,73.0,62.2,30.19,SSW,196,0.0,2.0,69,0.00,,,0.00,Wunderground v.1.13,2013-06-22 14:47:00,
2013-06-22 10:52:00,73.2,62.0,30.19,NNW,340,2.0,2.0,68,0.00,,,0.00,Wunderground v.1.13,2013-06-22 14:52:00,
2013-06-22 10:57:00,72.9,62.5,30.19,NNW,340,0.0,1.0,70,0.00,,,0.00,Wunderground v.1.13,2013-06-22 14:57:00,
2013-06-22 11:02:00,73.2,62.8,30.19,NNW,340,0.0,1.0,70,0.00,,,0.00,Wunderground v.1.13,2013-06-22 15:02:00,
2013-06-22 11:08:00,73.6,63.6,30.19,NNW,340,0.0,1.0,71,0.00,,,0.00,Wunderground v.1.13,2013-06-22 15:08:00,
2013-06-22 11:13:00,73.8,63.0,30.18,NNW,340,1.0,1.0,69,0.00,,,0.00,Wunderground v.1.13,2013-06-22 15:13:00,
2013-06-22 11:18:00,74.4,64.0,30.18,NNW,340,0.0,1.0,70,0.00,,,0.00,Wunderground v.1.13,2013-06-22 15:18:00,
2013-06-22 11:23:00,74.9,63.6,30.18,NNW,340,0.0,3.0,68,0.00,,,0.00,Wunderground v.1.13,2013-06-22 15:23:00,
2013-06-22 11:28:00,75.3,64.0,30.18,NNW,340,0.0,0.0,68,0.00,,,0.00,Wunderground v.1.13,2013-06-22 15:28:00,
2013-06-22 11:33:00,75.8,64.1,30.18,NNW,340,0.0,1.0,67,0.00,,,0.00,Wunderground v.1.13,2013-06-22 15:33:00,
2013-06-22 11:38:00,76.2,65.3,30.18,NNW,340,0.0,2.0,69,0.00,,,0.00,Wunderground v.1.13,2013-06-22 15:38:00,
2013-06-22 11:43:00,76.2,66.1,30.18,NNW,340,0.0,0.0,71,0.00,,,0.00,Wunderground v.1.13,2013-06-22 15:43:00,
2013-06-22 11:48:00,76.0,64.2,30.18,NNW,340,0.0,1.0,67,0.00,,,0.00,Wunderground v.1.13,2013-06-22 15:48:00,
2013-06-22 11:53:00,75.8,64.5,30.18,NNW,340,0.0,0.0,68,0.00,,,0.00,Wunderground v.1.13,2013-06-22 15:53:00,
2013-06-22 11:58:00,75.4,66.9,30.18,NNW,340,1.0,2.0,75,0.00,,,0.00,Wunderground v.1.13,2013-06-22 15:58:00,
2013-06-22 12:03:00,76.0,65.9,30.18,NNW,340,0.0,3.0,71,0.00,,,0.00,Wunderground v.1.13,2013-06-22 16:03:00,
2013-06-22 12:08:00,77.3,64.6,30.17,ESE,113,2.0,3.0,65,0.00,,,0.00,Wunderground v.1.13,2013-06-22 16:08:00,
2013-06-22 12:13:00,77.7,65.9,30.17,SE,125,0.0,2.0,67,0.00,,,0.00,Wunderground v.1.13,2013-06-22 16:13:00,
2013-06-22 12:19:00,77.4,66.4,30.17,SE,125,0.0,2.0,69,0.00,,,0.00,Wunderground v.1.13,2013-06-22 16:19:00,
2013-06-22 12:24:00,77.0,67.3,30.17,SE,125,2.0,2.0,72,0.00,,,0.00,Wunderground v.1.13,2013-06-22 16:24:00,
2013-06-22 12:29:00,77.4,66.4,30.17,South,186,0.0,2.0,69,0.00,,,0.00,Wunderground v.1.13,2013-06-22 16:29:00,
2013-06-22 12:34:00,77.7,66.7,30.17,South,186,0.0,2.0,69,0.00,,,0.00,Wunderground v.1.13,2013-06-22 16:34:00,
2013-06-22 12:39:00,77.9,66.9,30.16,South,186,0.0,0.0,69,0.00,,,0.00,Wunderground v.1.13,2013-06-22 16:39:00,
2013-06-22 12:44:00,77.3,67.6,30.16,South,186,0.0,2.0,72,0.00,,,0.00,Wunderground v.1.13,2013-06-22 16:44:00,
2013-06-22 12:49:00,75.4,66.9,30.17,South,186,0.0,3.0,75,0.00,,,0.00,Wunderground v.1.13,2013-06-22 16:49:00,
2013-06-22 12:54:00,74.1,66.4,30.17,South,186,0.0,2.0,77,0.00,,,0.00,Wunderground v.1.13,2013-06-22 16:54:00,
2013-06-22 12:59:00,73.4,66.5,30.16,South,186,0.0,2.0,79,0.00,,,0.00,Wunderground v.1.13,2013-06-22 16:59:00,
2013-06-22 13:04:00,74.0,67.4,30.16,South,186,0.0,2.0,80,0.00,,,0.00,Wunderground v.1.13,2013-06-22 17:04:00,
2013-06-22 13:09:00,75.8,66.5,30.15,West,267,0.0,3.0,73,0.00,,,0.00,Wunderground v.1.13,2013-06-22 17:09:00,
2013-06-22 13:14:00,77.9,65.2,30.15,West,262,1.0,6.0,65,0.00,,,0.00,Wunderground v.1.13,2013-06-22 17:14:00,
2013-06-22 13:19:00,79.1,65.0,30.15,West,261,1.0,3.0,62,0.00,,,0.00,Wunderground v.1.13,2013-06-22 17:19:00,
2013-06-22 13:24:00,79.2,64.6,30.15,WSW,252,0.0,4.0,61,0.00,,,0.00,Wunderground v.1.13,2013-06-22 17:24:00,
2013-06-22 13:29:00,78.7,66.8,30.15,WSW,252,0.0,1.0,67,0.00,,,0.00,Wunderground v.1.13,2013-06-22 17:29:00,
2013-06-22 13:34:00,78.1,67.9,30.15,WSW,252,0.0,2.0,71,0.00,,,0.00,Wunderground v.1.13,2013-06-22 17:34:00,
2013-06-22 13:39:00,77.6,65.8,30.15,WSW,253,0.0,2.0,67,0.00,,,0.00,Wunderground v.1.13,2013-06-22 17:39:00,
2013-06-22 13:44:00,78.0,65.3,30.15,NW,313,2.0,4.0,65,0.00,,,0.00,Wunderground v.1.13,2013-06-22 17:44:00,
2013-06-22 13:49:00,79.2,65.1,30.15,South,180,0.0,4.0,62,0.00,,,0.00,Wunderground v.1.13,2013-06-22 17:49:00,
2013-06-22 13:54:00,80.6,64.9,30.14,NNE,32,2.0,5.0,59,0.00,,,0.00,Wunderground v.1.13,2013-06-22 17:54:00,
2013-06-22 13:59:00,81.2,63.5,30.14,NE,54,2.0,4.0,55,0.00,,,0.00,Wunderground v.1.13,2013-06-22 17:59:00,
2013-06-22 14:04:00,80.7,62.5,30.14,SE,145,2.0,8.0,54,0.00,,,0.00,Wunderground v.1.13,2013-06-22 18:04:00,
2013-06-22 14:09:00,81.0,63.3,30.14,NW,326,0.0,5.0,55,0.00,,,0.00,Wunderground v.1.13,2013-06-22 18:09:00,
2013-06-22 14:14:00,81.9,63.6,30.14,SE,144,2.0,5.0,54,0.00,,,0.00,Wunderground v.1.13,2013-06-22 18:14:00,
2013-06-22 14:20:00,82.8,63.9,30.13,West,263,0.0,1.0,53,0.00,,,0.00,Wunderground v.1.13,2013-06-22 18:20:00,
2013-06-22 14:25:00,83.1,63.7,30.13,NE,40,2.0,2.0,52,0.00,,,0.00,Wunderground v.1.13,2013-06-22 18:25:00,
2013-06-22 14:30:00,82.1,62.2,30.13,East,99,3.0,3.0,51,0.00,,,0.00,Wunderground v.1.13,2013-06-22 18:30:00,
2013-06-22 14:35:00,81.0,62.8,30.13,NW,313,0.0,3.0,54,0.00,,,0.00,Wunderground v.1.13,2013-06-22 18:35:00,
2013-06-22 14:41:00,81.0,61.7,30.13,SSW,207,3.0,4.0,52,0.00,,,0.00,Wunderground v.1.13,2013-06-22 18:41:00,
2013-06-22 14:46:00,81.0,62.3,30.13,NNE,15,0.0,2.0,53,0.00,,,0.00,Wunderground v.1.13,2013-06-22 18:46:00,
2013-06-22 14:51:00,81.1,61.8,30.13,West,272,5.0,6.0,52,0.00,,,0.00,Wunderground v.1.13,2013-06-22 18:51:00,
2013-06-22 14:56:00,81.2,63.0,30.12,SSE,156,0.0,4.0,54,0.00,,,0.00,Wunderground v.1.13,2013-06-22 18:56:00,
2013-06-22 15:01:00,81.1,63.9,30.12,NNE,32,0.0,1.0,56,0.00,,,0.00,Wunderground v.1.13,2013-06-22 19:01:00,
2013-06-22 15:06:00,81.3,62.0,30.12,East,101,2.0,4.0,52,0.00,,,0.00,Wunderground v.1.13,2013-06-22 19:06:00,
2013-06-22 15:11:00,81.4,63.2,30.12,ENE,65,0.0,1.0,54,0.00,,,0.00,Wunderground v.1.13,2013-06-22 19:11:00,
2013-06-22 15:16:00,81.5,62.7,30.12,South,182,0.0,2.0,53,0.00,,,0.00,Wunderground v.1.13,2013-06-22 19:16:00,
2013-06-22 15:21:00,81.3,63.1,30.12,NNW,348,2.0,4.0,54,0.00,,,0.00,Wunderground v.1.13,2013-06-22 19:21:00,
2013-06-22 15:26:00,81.4,62.6,30.12,ENE,75,2.0,3.0,53,0.00,,,0.00,Wunderground v.1.13,2013-06-22 19:26:00,
2013-06-22 15:31:00,81.5,63.3,30.12,NE,52,0.0,3.0,54,0.00,,,0.00,Wunderground v.1.13,2013-06-22 19:31:00,
2013-06-22 15:36:00,81.2,62.4,30.11,NNE,28,0.0,8.0,53,0.00,,,0.00,Wunderground v.1.13,2013-06-22 19:36:00,
2013-06-22 15:41:00,80.9,62.7,30.11,SSE,165,1.0,3.0,54,0.00,,,0.00,Wunderground v.1.13,2013-06-22 19:41:00,
2013-06-22 15:46:00,80.6,63.5,30.11,ESE,123,4.0,4.0,56,0.00,,,0.00,Wunderground v.1.13,2013-06-22 19:46:00,
2013-06-22 15:51:00,80.3,62.7,30.11,North,355,0.0,2.0,55,0.00,,,0.00,Wunderground v.1.13,2013-06-22 19:51:00,
2013-06-22 15:56:00,80.4,62.8,30.11,North,355,0.0,3.0,55,0.00,,,0.00,Wunderground v.1.13,2013-06-22 19:56:00,
2013-06-22 16:02:00,80.7,62.0,30.11,NNW,338,3.0,4.0,53,0.00,,,0.00,Wunderground v.1.13,2013-06-22 20:02:00,
2013-06-22 16:07:00,81.0,63.8,30.11,SE,134,4.0,4.0,56,0.00,,,0.00,Wunderground v.1.13,2013-06-22 20:07:00,
2013-06-22 16:12:00,80.7,63.5,30.11,ESE,121,0.0,2.0,56,0.00,,,0.00,Wunderground v.1.13,2013-06-22 20:12:00,
2013-06-22 16:17:00,80.6,63.5,30.11,ENE,72,0.0,4.0,56,0.00,,,0.00,Wunderground v.1.13,2013-06-22 20:17:00,
2013-06-22 16:22:00,80.1,64.5,30.11,East,89,0.0,2.0,59,0.00,,,0.00,Wunderground v.1.13,2013-06-22 20:22:00,
2013-06-22 16:27:00,79.7,62.6,30.11,East,89,0.0,3.0,56,0.00,,,0.00,Wunderground v.1.13,2013-06-22 20:27:00,
2013-06-22 16:32:00,79.4,63.3,30.11,East,94,4.0,4.0,58,0.00,,,0.00,Wunderground v.1.13,2013-06-22 20:32:00,
2013-06-22 16:37:00,79.0,64.4,30.11,ENE,58,0.0,2.0,61,0.00,,,0.00,Wunderground v.1.13,2013-06-22 20:37:00,
2013-06-22 16:42:00,78.7,64.1,30.11,NNE,31,0.0,1.0,61,0.00,,,0.00,Wunderground v.1.13,2013-06-22 20:42:00,
2013-06-22 16:47:00,78.4,63.4,30.11,NNE,29,0.0,1.0,60,0.00,,,0.00,Wunderground v.1.13,2013-06-22 20:47:00,
2013-06-22 16:52:00,78.3,65.6,30.11,NNE,29,0.0,0.0,65,0.00,,,0.00,Wunderground v.1.13,2013-06-22 20:52:00,
2013-06-22 16:57:00,78.3,64.7,30.11,NNE,29,0.0,0.0,63,0.00,,,0.00,Wunderground v.1.13,2013-06-22 20:57:00,
2013-06-22 17:02:00,78.1,66.2,30.11,NNE,29,0.0,0.0,67,0.00,,,0.00,Wunderground v.1.13,2013-06-22 21:02:00,
2013-06-22 17:07:00,77.6,63.5,30.11,NNE,29,0.0,2.0,62,0.00,,,0.00,Wunderground v.1.13,2013-06-22 21:07:00,
2013-06-22 17:13:00,76.7,66.2,30.11,NNE,28,1.0,1.0,70,0.00,,,0.00,Wunderground v.1.13,2013-06-22 21:13:00,
2013-06-22 17:18:00,75.4,66.5,30.11,NNW,331,1.0,2.0,74,0.00,,,0.00,Wunderground v.1.13,2013-06-22 21:18:00,
2013-06-22 17:23:00,74.1,66.0,30.11,NNW,331,1.0,1.0,76,0.00,,,0.00,Wunderground v.1.13,2013-06-22 21:23:00,
2013-06-22 17:28:00,73.1,65.5,30.11,NNW,331,1.0,1.0,77,0.00,,,0.00,Wunderground v.1.13,2013-06-22 21:28:00,
2013-06-22 17:33:00,72.4,65.9,30.11,NNW,331,0.0,1.0,80,0.00,,,0.00,Wunderground v.1.13,2013-06-22 21:33:00,
2013-06-22 17:38:00,72.0,65.8,30.11,NNW,331,0.0,0.0,81,0.00,,,0.00,Wunderground v.1.13,2013-06-22 21:38:00,
2013-06-22 17:43:00,71.6,65.5,30.11,NNW,331,0.0,0.0,81,0.00,,,0.00,Wunderground v.1.13,2013-06-22 21:43:00,
2013-06-22 17:48:00,71.3,65.5,30.11,NNW,331,0.0,0.0,82,0.00,,,0.00,Wunderground v.1.13,2013-06-22 21:48:00,
2013-06-22 17:53:00,71.0,64.9,30.10,NNW,331,0.0,1.0,81,0.00,,,0.00,Wunderground v.1.13,2013-06-22 21:53:00,
2013-06-22 17:58:00,70.9,65.1,30.10,NNW,331,0.0,0.0,82,0.00,,,0.00,Wunderground v.1.13,2013-06-22 21:58:00,
2013-06-22 18:03:00,70.9,65.1,30.11,NNW,331,0.0,0.0,82,0.00,,,0.00,Wunderground v.1.13,2013-06-22 22:03:00,
2013-06-22 18:08:00,70.8,64.7,30.11,NNW,331,0.0,0.0,81,0.00,,,0.00,Wunderground v.1.13,2013-06-22 22:08:00,
2013-06-22 18:13:00,70.8,64.7,30.11,NNW,331,1.0,1.0,81,0.00,,,0.00,Wunderground v.1.13,2013-06-22 22:13:00,
2013-06-22 18:19:00,71.3,64.4,30.11,NNW,340,0.0,1.0,79,0.00,,,0.00,Wunderground v.1.13,2013-06-22 22:19:00,
2013-06-22 18:24:00,72.1,64.1,30.11,South,175,0.0,4.0,76,0.00,,,0.00,Wunderground v.1.13,2013-06-22 22:24:00,
2013-06-22 18:29:00,72.8,64.0,30.11,WNW,302,0.0,4.0,74,0.00,,,0.00,Wunderground v.1.13,2013-06-22 22:29:00,
2013-06-22 18:34:00,73.3,64.9,30.11,WNW,302,0.0,1.0,75,0.00,,,0.00,Wunderground v.1.13,2013-06-22 22:34:00,
2013-06-22 18:39:00,73.4,65.0,30.11,WNW,299,0.0,2.0,75,0.00,,,0.00,Wunderground v.1.13,2013-06-22 22:39:00,
2013-06-22 18:44:00,73.4,64.6,30.11,SW,231,3.0,5.0,74,0.00,,,0.00,Wunderground v.1.13,2013-06-22 22:44:00,
2013-06-22 18:49:00,73.2,64.4,30.11,SE,130,3.0,3.0,74,0.00,,,0.00,Wunderground v.1.13,2013-06-22 22:49:00,
2013-06-22 18:54:00,73.0,64.2,30.11,NW,309,0.0,6.0,74,0.00,,,0.00,Wunderground v.1.13,2013-06-22 22:54:00,
2013-06-22 18:59:00,72.9,64.1,30.11,NW,309,1.0,3.0,74,0.00,,,0.00,Wunderground v.1.13,2013-06-22 22:59:00,
2013-06-22 19:04:00,72.7,64.7,30.11,SW,234,0.0,5.0,76,0.00,,,0.00,Wunderground v.1.13,2013-06-22 23:04:00,
2013-06-22 19:09:00,72.4,64.0,30.11,SSW,206,0.0,4.0,75,0.00,,,0.00,Wunderground v.1.13,2013-06-22 23:09:00,
2013-06-22 19:14:00,72.2,64.2,30.11,SSW,206,0.0,1.0,76,0.00,,,0.00,Wunderground v.1.13,2013-06-22 23:14:00,
2013-06-22 19:19:00,72.0,64.4,30.11,SSW,206,1.0,1.0,77,0.00,,,0.00,Wunderground v.1.13,2013-06-22 23:19:00,
2013-06-22 19:24:00,71.2,64.7,30.11,SSW,205,0.0,4.0,80,0.00,,,0.00,Wunderground v.1.13,2013-06-22 23:24:00,
2013-06-22 19:29:00,71.0,64.2,30.12,SSW,205,0.0,1.0,79,0.00,,,0.00,Wunderground v.1.13,2013-06-22 23:29:00,
2013-06-22 19:34:00,70.9,64.1,30.12,SW,234,0.0,3.0,79,0.00,,,0.00,Wunderground v.1.13,2013-06-22 23:34:00,
2013-06-22 19:39:00,70.9,64.4,30.12,SW,234,3.0,3.0,80,0.00,,,0.00,Wunderground v.1.13,2013-06-22 23:39:00,
2013-06-22 19:44:00,70.7,63.9,30.13,WNW,290,0.0,2.0,79,0.00,,,0.00,Wunderground v.1.13,2013-06-22 23:44:00,
2013-06-22 19:50:00,70.4,63.9,30.13,WSW,240,2.0,2.0,80,0.00,,,0.00,Wunderground v.1.13,2013-06-22 23:50:00,
2013-06-22 19:55:00,70.2,63.7,30.13,SSW,200,3.0,3.0,80,0.00,,,0.00,Wunderground v.1.13,2013-06-22 23:55:00,
2013-06-22 20:00:00,69.8,63.3,30.12,SSW,201,0.0,2.0,80,0.00,,,0.00,Wunderground v.1.13,2013-06-23 00:00:00,
2013-06-22 20:05:00,69.6,63.5,30.12,SSW,209,3.0,3.0,81,0.00,,,0.00,Wunderground v.1.13,2013-06-23 00:05:00,
2013-06-22 20:10:00,69.3,63.2,30.12,WNW,287,0.0,3.0,81,0.00,,,0.00,Wunderground v.1.13,2013-06-23 00:10:00,
2013-06-22 20:15:00,69.2,63.1,30.12,WNW,287,0.0,1.0,81,0.00,,,0.00,Wunderground v.1.13,2013-06-23 00:15:00,
2013-06-22 20:20:00,69.0,62.9,30.12,SSW,200,2.0,2.0,81,0.00,,,0.00,Wunderground v.1.13,2013-06-23 00:20:00,
2013-06-22 20:25:00,68.8,63.1,30.12,SSW,199,0.0,0.0,82,0.00,,,0.00,Wunderground v.1.13,2013-06-23 00:25:00,
2013-06-22 20:31:00,68.6,62.9,30.12,SSW,199,0.0,0.0,82,0.00,,,0.00,Wunderground v.1.13,2013-06-23 00:31:00,
2013-06-22 20:36:00,68.3,62.6,30.12,SSW,213,0.0,3.0,82,0.00,,,0.00,Wunderground v.1.13,2013-06-23 00:36:00,
2013-06-22 20:41:00,68.2,62.8,30.12,SSW,213,0.0,2.0,83,0.00,,,0.00,Wunderground v.1.13,2013-06-23 00:41:00,
2013-06-22 20:46:00,67.9,62.5,30.12,SSW,213,0.0,0.0,83,0.00,,,0.00,Wunderground v.1.13,2013-06-23 00:46:00,
2013-06-22 20:51:00,67.7,62.7,30.12,SSW,213,0.0,0.0,84,0.00,,,0.00,Wunderground v.1.13,2013-06-23 00:51:00,
2013-06-22 20:56:00,67.5,62.8,30.12,SSW,213,0.0,0.0,85,0.00,,,0.00,Wunderground v.1.13,2013-06-23 00:56:00,
2013-06-22 21:01:00,67.4,62.7,30.12,SSW,213,0.0,0.0,85,0.00,,,0.00,Wunderground v.1.13,2013-06-23 01:01:00,
2013-06-22 21:06:00,67.2,62.9,30.13,SSW,213,0.0,0.0,86,0.00,,,0.00,Wunderground v.1.13,2013-06-23 01:06:00,
2013-06-22 21:12:00,66.9,62.6,30.13,SSW,213,0.0,0.0,86,0.00,,,0.00,Wunderground v.1.13,2013-06-23 01:12:00,
2013-06-22 21:17:00,66.7,62.7,30.13,SSW,213,0.0,0.0,87,0.00,,,0.00,Wunderground v.1.13,2013-06-23 01:17:00,
2013-06-22 21:22:00,66.6,62.6,30.13,SSW,213,0.0,0.0,87,0.00,,,0.00,Wunderground v.1.13,2013-06-23 01:22:00,
2013-06-22 21:27:00,66.4,62.4,30.13,SSW,213,0.0,0.0,87,0.00,,,0.00,Wunderground v.1.13,2013-06-23 01:27:00,
2013-06-22 21:32:00,66.3,62.6,30.14,SSW,213,0.0,0.0,88,0.00,,,0.00,Wunderground v.1.13,2013-06-23 01:32:00,
2013-06-22 21:37:00,66.1,62.4,30.14,SSW,213,0.0,0.0,88,0.00,,,0.00,Wunderground v.1.13,2013-06-23 01:37:00,
2013-06-22 21:42:00,66.0,62.7,30.14,SSW,213,0.0,0.0,89,0.00,,,0.01,Wunderground v.1.13,2013-06-23 01:42:00,
2013-06-22 21:47:00,65.9,62.6,30.15,SSW,213,0.0,0.0,89,0.00,,,0.01,Wunderground v.1.13,2013-06-23 01:47:00,
2013-06-22 21:52:00,65.9,62.6,30.15,SSW,213,0.0,0.0,89,0.00,,,0.01,Wunderground v.1.13,2013-06-23 01:52:00,
2013-06-22 21:57:00,65.7,62.7,30.15,SSW,213,0.0,0.0,90,0.19,,,0.03,Wunderground v.1.13,2013-06-23 01:57:00,
2013-06-22 22:02:00,65.7,62.7,30.15,SSW,213,0.0,1.0,90,0.11,,,0.04,Wunderground v.1.13,2013-06-23 02:02:00,
2013-06-22 22:07:00,65.6,62.6,30.15,SSW,213,0.0,0.0,90,0.10,,,0.04,Wunderground v.1.13,2013-06-23 02:07:00,
2013-06-22 22:12:00,65.6,62.9,30.15,SSW,213,0.0,0.0,91,0.08,,,0.05,Wunderground v.1.13,2013-06-23 02:12:00,
2013-06-22 22:17:00,65.5,62.8,30.15,SSW,213,0.0,0.0,91,0.07,,,0.05,Wunderground v.1.13,2013-06-23 02:17:00,
2013-06-22 22:22:00,65.5,63.1,30.15,SSW,213,0.0,0.0,92,0.04,,,0.05,Wunderground v.1.13,2013-06-23 02:22:00,
2013-06-22 22:27:00,65.4,62.7,30.15,SSW,213,0.0,0.0,91,0.00,,,0.05,Wunderground v.1.13,2013-06-23 02:27:00,
2013-06-22 22:32:00,65.4,62.7,30.15,SSW,213,0.0,0.0,91,0.00,,,0.05,Wunderground v.1.13,2013-06-23 02:32:00,
2013-06-22 22:37:00,65.3,62.6,30.15,SSW,213,0.0,0.0,91,0.00,,,0.05,Wunderground v.1.13,2013-06-23 02:37:00,
2013-06-22 22:42:00,65.2,62.5,30.15,SSW,213,0.0,0.0,91,0.00,,,0.05,Wunderground v.1.13,2013-06-23 02:42:00,
2013-06-22 22:47:00,65.1,62.7,30.15,SSW,213,0.0,0.0,92,0.00,,,0.05,Wunderground v.1.13,2013-06-23 02:47:00,
2013-06-22 22:53:00,65.1,62.7,30.15,SSW,213,0.0,0.0,92,0.00,,,0.05,Wunderground v.1.13,2013-06-23 02:53:00,
2013-06-22 22:58:00,64.9,62.2,30.15,SSW,213,0.0,0.0,91,0.00,,,0.05,Wunderground v.1.13,2013-06-23 02:58:00,
2013-06-22 23:03:00,64.9,62.2,30.15,SSW,213,0.0,0.0,91,0.00,,,0.05,Wunderground v.1.13,2013-06-23 03:03:00,
2013-06-22 23:08:00,64.8,62.4,30.14,SSW,213,0.0,0.0,92,0.00,,,0.05,Wunderground v.1.13,2013-06-23 03:08:00,
2013-06-22 23:13:00,64.8,62.4,30.15,SSW,213,0.0,0.0,92,0.00,,,0.05,Wunderground v.1.13,2013-06-23 03:13:00,
2013-06-22 23:18:00,64.7,62.3,30.14,SSW,213,0.0,0.0,92,0.00,,,0.05,Wunderground v.1.13,2013-06-23 03:18:00,
2013-06-22 23:23:00,64.7,62.3,30.14,SSW,213,0.0,0.0,92,0.00,,,0.05,Wunderground v.1.13,2013-06-23 03:23:00,
2013-06-22 23:29:00,64.7,62.3,30.14,SSW,213,0.0,0.0,92,0.00,,,0.05,Wunderground v.1.13,2013-06-23 03:29:00,
2013-06-22 23:34:00,64.6,62.2,30.14,SSW,213,0.0,0.0,92,0.00,,,0.05,Wunderground v.1.13,2013-06-23 03:34:00,
2013-06-22 23:39:00,64.5,62.1,30.14,SSW,213,0.0,0.0,92,0.00,,,0.05,Wunderground v.1.13,2013-06-23 03:39:00,
2013-06-22 23:44:00,64.4,62.0,30.14,SSW,213,0.0,0.0,92,0.00,,,0.05,Wunderground v.1.13,2013-06-23 03:44:00,
2013-06-22 23:49:00,64.4,62.0,30.14,SSW,213,0.0,0.0,92,0.00,,,0.05,Wunderground v.1.13,2013-06-23 03:49:00,
2013-06-22 23:54:00,64.3,61.9,30.15,SSW,213,0.0,0.0,92,0.00,,,0.05,Wunderground v.1.13,2013-06-23 03:54:00,